createdAt,value
2018-06-04T00:00:48.628Z,11.50
2018-06-04T00:03:19.913Z,10.83
2018-06-04T00:05:50.875Z,11.10
2018-06-04T00:08:21.093Z,11.20
2018-06-04T00:10:50.840Z,10.53
2018-06-04T00:13:20.855Z,10.47
2018-06-04T00:15:51.412Z,10.30
2018-06-04T00:18:21.020Z,11.57
2018-06-04T00:20:51.228Z,10.57
2018-06-04T00:23:21.387Z,10.83
2018-06-04T00:25:51.254Z,12.07
2018-06-04T00:28:21.020Z,13.73
2018-06-04T00:30:50.654Z,14.70
2018-06-04T00:33:20.803Z,15.80
2018-06-04T00:35:50.735Z,15.53
2018-06-04T00:38:24.000Z,14.43
2018-06-04T00:40:53.827Z,11.33
2018-06-04T00:43:24.028Z,10.07
2018-06-04T00:45:53.718Z,11.43
2018-06-04T00:48:23.836Z,10.93
2018-06-04T00:50:54.114Z,13.20
2018-06-04T00:53:24.215Z,14.40
2018-06-04T00:56:35.223Z,15.37
2018-06-04T00:59:05.162Z,13.07
2018-06-04T01:01:36.343Z,12.87
2018-06-04T01:04:07.874Z,11.00
2018-06-04T01:06:37.641Z,12.60
2018-06-04T01:09:09.149Z,9.87
2018-06-04T01:11:39.648Z,10.47
2018-06-04T01:14:10.154Z,10.73
2018-06-04T01:16:39.841Z,11.30
2018-06-04T01:19:09.764Z,11.10
2018-06-04T01:21:39.443Z,10.90
2018-06-04T01:24:09.505Z,11.53
2018-06-04T01:26:39.201Z,11.17
2018-06-04T01:29:09.376Z,11.83
2018-06-04T01:31:39.729Z,13.43
2018-06-04T01:34:09.333Z,11.97
2018-06-04T01:36:38.943Z,12.47
2018-06-04T01:39:09.600Z,18.50
2018-06-04T01:41:39.330Z,13.20
2018-06-04T01:44:09.608Z,13.37
2018-06-04T01:46:39.448Z,14.63
2018-06-04T01:49:09.512Z,13.60
2018-06-04T01:51:39.534Z,14.80
2018-06-04T01:54:09.984Z,14.50
2018-06-04T01:56:40.249Z,14.00
2018-06-04T01:59:10.764Z,13.57
2018-06-04T02:01:41.368Z,14.00
2018-06-04T02:04:11.998Z,13.60
2018-06-04T02:06:42.749Z,13.60
2018-06-04T02:09:12.355Z,14.57
2018-06-04T02:11:42.647Z,14.70
2018-06-04T02:14:12.410Z,13.90
2018-06-04T02:16:41.851Z,14.50
2018-06-04T02:19:12.008Z,12.10
2018-06-04T02:21:42.037Z,16.10
2018-06-04T02:24:15.459Z,16.60
2018-06-04T02:26:45.707Z,16.43
2018-06-04T02:29:15.266Z,15.80
2018-06-04T02:31:45.219Z,14.80
2018-06-04T02:34:15.386Z,16.30
2018-06-04T02:36:45.272Z,17.33
2018-06-04T02:39:16.913Z,15.13
2018-06-04T02:41:46.639Z,15.83
2018-06-04T02:44:19.716Z,16.23
2018-06-04T02:46:49.605Z,14.20
2018-06-04T02:49:21.028Z,14.00
2018-06-04T02:51:51.155Z,14.20
2018-06-04T02:54:23.492Z,13.23
2018-06-04T02:56:53.557Z,14.60
2018-06-04T02:59:23.160Z,13.53
2018-06-04T03:01:53.003Z,14.97
2018-06-04T03:04:24.341Z,16.13
2018-06-04T03:06:54.417Z,14.47
2018-06-04T03:09:25.233Z,14.00
2018-06-04T03:11:54.720Z,15.13
2018-06-04T03:14:25.539Z,15.37
2018-06-04T03:16:55.190Z,15.23
2018-06-04T03:19:24.830Z,16.43
2018-06-04T03:21:55.612Z,14.23
2018-06-04T03:24:26.255Z,15.13
2018-06-04T03:26:56.499Z,14.53
2018-06-04T03:29:26.663Z,16.43
2018-06-04T03:31:56.869Z,14.20
2018-06-04T03:34:26.811Z,16.00
2018-06-04T03:36:57.071Z,17.70
2018-06-04T03:39:27.884Z,17.23
2018-06-04T03:41:58.276Z,15.37
2018-06-04T03:44:28.180Z,16.27
2018-06-04T03:46:57.839Z,18.30
2018-06-04T03:49:28.263Z,18.07
2018-06-04T03:51:58.034Z,18.57
2018-06-04T03:54:28.439Z,19.23
2018-06-04T03:56:58.579Z,19.97
2018-06-04T03:59:29.713Z,18.00
2018-06-04T04:01:59.353Z,19.63
2018-06-04T04:04:29.630Z,17.80
2018-06-04T04:06:59.369Z,20.63
2018-06-04T04:09:29.759Z,20.00
2018-06-04T04:11:59.783Z,20.33
2018-06-04T04:14:29.760Z,18.60
2018-06-04T04:17:00.299Z,18.50
2018-06-04T04:19:31.893Z,19.77
2018-06-04T04:22:02.163Z,19.20
2018-06-04T04:24:33.535Z,19.13
2018-06-04T04:27:03.109Z,18.60
2018-06-04T04:29:34.037Z,20.53
2018-06-04T04:32:04.876Z,21.20
2018-06-04T04:34:35.152Z,22.07
2018-06-04T04:37:04.933Z,22.40
2018-06-04T04:39:34.789Z,23.80
2018-06-04T04:42:04.804Z,30.60
2018-06-04T04:44:35.148Z,29.70
2018-06-04T04:47:05.336Z,27.13
2018-06-04T04:49:35.411Z,24.40
2018-06-04T04:52:05.468Z,24.30
2018-06-04T04:54:35.196Z,25.10
2018-06-04T04:57:04.915Z,23.27
2018-06-04T04:59:34.359Z,24.50
2018-06-04T05:02:05.674Z,28.50
2018-06-04T05:04:35.313Z,30.70
2018-06-04T05:07:06.349Z,34.03
2018-06-04T05:09:36.816Z,30.40
2018-06-04T05:12:06.728Z,29.50
2018-06-04T05:14:36.911Z,26.60
2018-06-04T05:17:08.597Z,28.73
2018-06-04T05:19:39.155Z,27.30
2018-06-04T05:22:09.659Z,38.37
2018-06-04T05:24:39.047Z,37.73
2018-06-04T05:27:08.623Z,32.10
2018-06-04T05:29:38.440Z,30.73
2018-06-04T05:32:09.664Z,29.67
2018-06-04T05:34:39.983Z,30.50
2018-06-04T05:37:10.272Z,28.57
2018-06-04T05:39:39.823Z,27.03
2018-06-04T05:42:09.835Z,32.07
2018-06-04T05:44:39.787Z,31.07
2018-06-04T05:47:09.774Z,29.17
2018-06-04T05:49:40.821Z,29.63
2018-06-04T05:52:10.848Z,28.07
2018-06-04T05:54:42.212Z,29.80
2018-06-04T05:57:12.684Z,28.07
2018-06-04T05:59:42.309Z,28.20
2018-06-04T06:02:11.775Z,29.33
2018-06-04T06:04:41.828Z,29.87
2018-06-04T06:07:12.090Z,30.17
2018-06-04T06:09:42.112Z,27.80
2018-06-04T06:12:12.256Z,29.10
2018-06-04T06:14:42.019Z,30.83
2018-06-04T06:17:11.752Z,28.17
2018-06-04T06:19:41.487Z,26.80
2018-06-04T06:22:11.200Z,29.40
2018-06-04T06:24:41.127Z,28.30
2018-06-04T06:27:10.560Z,28.87
2018-06-04T06:29:40.457Z,27.40
2018-06-04T06:32:10.269Z,27.90
2018-06-04T06:34:40.517Z,25.37
2018-06-04T06:37:10.777Z,26.60
2018-06-04T06:39:41.698Z,26.53
2018-06-04T06:42:11.374Z,24.97
2018-06-04T06:44:41.707Z,25.83
2018-06-04T06:47:11.827Z,24.73
2018-06-04T06:49:42.166Z,25.20
2018-06-04T06:52:12.250Z,22.63
2018-06-04T06:54:41.873Z,26.10
2018-06-04T06:57:12.935Z,24.60
2018-06-04T06:59:43.143Z,24.30
2018-06-04T07:02:12.797Z,22.77
2018-06-04T07:04:42.182Z,22.47
2018-06-04T07:07:12.578Z,22.10
2018-06-04T07:09:42.168Z,21.73
2018-06-04T07:12:11.830Z,21.70
2018-06-04T07:14:42.520Z,22.03
2018-06-04T07:17:13.417Z,21.30
2018-06-04T07:19:43.384Z,18.90
2018-06-04T07:22:13.408Z,18.37
2018-06-04T07:24:43.303Z,20.77
2018-06-04T07:27:14.692Z,18.17
2018-06-04T07:29:44.159Z,21.07
2018-06-04T07:32:14.265Z,19.43
2018-06-04T07:34:43.956Z,19.47
2018-06-04T07:37:13.697Z,19.70
2018-06-04T07:39:43.955Z,20.53
2018-06-04T07:42:15.323Z,18.70
2018-06-04T07:44:45.811Z,19.20
2018-06-04T07:47:16.407Z,20.00
2018-06-04T07:49:47.342Z,19.23
2018-06-04T07:52:17.503Z,18.13
2018-06-04T07:54:47.673Z,17.30
2018-06-04T07:57:17.814Z,16.33
2018-06-04T07:59:47.824Z,16.77
2018-06-04T08:02:17.696Z,13.50
2018-06-04T08:04:47.554Z,14.30
2018-06-04T08:07:18.670Z,14.07
2018-06-04T08:09:48.748Z,14.07
2018-06-04T08:12:18.376Z,13.73
2018-06-04T08:14:48.806Z,14.30
2018-06-04T08:17:19.204Z,13.10
2018-06-04T08:19:49.079Z,12.30
2018-06-04T08:22:19.211Z,13.20
2018-06-04T08:24:49.000Z,11.70
2018-06-04T08:27:19.674Z,11.00
2018-06-04T08:29:50.160Z,11.17
2018-06-04T08:32:19.763Z,13.50
2018-06-04T08:34:49.872Z,13.70
2018-06-04T08:37:20.301Z,14.00
2018-06-04T08:39:51.722Z,13.40
2018-06-04T08:42:22.768Z,13.70
2018-06-04T08:44:52.447Z,13.17
2018-06-04T08:47:22.102Z,11.20
2018-06-04T08:49:52.001Z,11.20
2018-06-04T08:52:23.760Z,11.47
2018-06-04T08:54:54.169Z,11.40
2018-06-04T08:57:24.028Z,9.90
2018-06-04T08:59:53.823Z,10.90
2018-06-04T09:02:24.452Z,12.47
2018-06-04T09:04:54.256Z,10.20
2018-06-04T09:07:24.271Z,10.47
2018-06-04T09:09:56.099Z,9.53
2018-06-04T09:12:27.209Z,10.23
2018-06-04T09:14:56.738Z,10.50
2018-06-04T09:17:26.396Z,10.50
2018-06-04T09:19:57.841Z,9.27
2018-06-04T09:22:27.270Z,8.70
2018-06-04T09:24:57.193Z,11.17
2018-06-04T09:27:26.977Z,10.00
2018-06-04T09:29:57.341Z,11.33
2018-06-04T09:32:27.721Z,10.07
2018-06-04T09:34:57.500Z,11.70
2018-06-04T09:37:28.096Z,12.03
2018-06-04T09:39:57.879Z,10.50
2018-06-04T09:42:29.064Z,8.37
2018-06-04T09:44:58.626Z,11.03
2018-06-04T09:47:28.251Z,10.57
2018-06-04T09:49:58.102Z,11.77
2018-06-04T09:52:29.024Z,11.77
2018-06-04T09:54:59.522Z,11.00
2018-06-04T09:57:32.204Z,13.77
2018-06-04T10:00:02.005Z,13.37
2018-06-04T10:02:32.293Z,12.50
2018-06-04T10:05:02.234Z,12.47
2018-06-04T10:07:31.681Z,12.17
2018-06-04T10:10:05.451Z,12.17
2018-06-04T10:12:35.621Z,13.07
2018-06-04T10:15:06.347Z,12.90
2018-06-04T10:17:35.951Z,11.30
2018-06-04T10:20:05.768Z,11.13
2018-06-04T10:22:36.147Z,11.27
2018-06-04T10:25:05.795Z,8.77
2018-06-04T10:27:35.778Z,8.40
2018-06-04T10:30:06.701Z,10.37
2018-06-04T10:32:38.164Z,9.07
2018-06-04T10:35:08.656Z,9.50
2018-06-04T10:37:38.299Z,8.70
2018-06-04T10:40:08.409Z,8.40
2018-06-04T10:42:37.792Z,10.53
2018-06-04T10:45:07.132Z,11.30
2018-06-04T10:47:37.008Z,11.80
2018-06-04T10:50:06.110Z,11.70
2018-06-04T11:32:39.348Z,10.87
2018-06-04T11:35:09.783Z,10.50
2018-06-04T11:37:39.248Z,10.23
2018-06-04T11:40:09.472Z,10.30
2018-06-04T11:42:38.891Z,10.57
2018-06-04T11:45:08.695Z,9.90
2018-06-04T11:47:39.131Z,11.27
2018-06-04T11:50:10.803Z,11.27
2018-06-04T11:52:40.578Z,11.40
2018-06-04T11:55:12.449Z,11.93
2018-06-04T11:57:41.882Z,12.20
2018-06-04T12:00:11.752Z,14.10
2018-06-04T12:02:41.489Z,11.13
2018-06-04T12:05:11.750Z,12.60
2018-06-04T12:07:41.495Z,11.13
2018-06-04T12:10:13.902Z,11.40
2018-06-04T12:12:44.126Z,15.00
2018-06-04T12:15:14.273Z,13.23
2018-06-04T12:17:44.804Z,13.83
2018-06-04T12:20:15.166Z,13.70
2018-06-04T12:22:45.235Z,12.70
2018-06-04T12:25:14.836Z,14.13
2018-06-04T12:27:44.512Z,14.53
2018-06-04T12:30:14.829Z,14.10
2018-06-04T12:32:57.273Z,14.33
2018-06-04T12:35:27.412Z,14.10
2018-06-04T12:37:57.217Z,11.13
2018-06-04T12:40:27.876Z,13.00
2018-06-04T12:42:57.631Z,13.07
2018-06-04T12:45:27.516Z,12.30
2018-06-04T12:47:57.368Z,13.03
2018-06-04T12:50:28.172Z,11.93
2018-06-04T12:53:00.191Z,10.60
2018-06-04T12:56:50.313Z,9.03
2018-06-04T12:59:45.573Z,10.40
2018-06-04T13:03:01.488Z,10.00
2018-06-04T13:05:57.114Z,8.07
2018-06-04T13:12:19.446Z,7.77
2018-06-04T13:39:54.115Z,7.47
2018-06-04T13:44:47.702Z,7.20
2018-06-04T14:09:42.400Z,12.30
2018-06-04T14:12:37.651Z,11.13
2018-06-04T14:15:40.457Z,10.10
2018-06-04T14:21:07.240Z,9.50
2018-06-04T14:23:38.995Z,10.50
2018-06-04T14:26:10.160Z,12.13
2018-06-04T14:28:39.538Z,13.93
2018-06-04T14:31:09.452Z,12.47
2018-06-04T14:33:46.627Z,11.40
2018-06-04T14:36:19.102Z,10.53
2018-06-04T14:38:58.129Z,9.60
2018-06-04T14:41:29.624Z,11.40
2018-06-04T14:44:02.391Z,11.20
2018-06-04T14:52:45.686Z,11.30
2018-06-04T15:02:19.511Z,8.93
2018-06-04T15:04:49.642Z,8.37
2018-06-04T15:07:19.978Z,9.93
2018-06-04T15:09:49.563Z,10.30
2018-06-04T15:12:18.902Z,9.20
2018-06-04T15:14:48.594Z,10.60
2018-06-04T15:17:19.812Z,9.50
2018-06-04T15:19:50.019Z,10.33
2018-06-04T15:22:19.936Z,10.80
2018-06-04T15:24:49.312Z,9.40
2018-06-04T15:27:19.498Z,12.30
2018-06-04T15:29:48.890Z,15.10
2018-06-04T15:32:18.932Z,14.87
2018-06-04T15:34:48.356Z,16.67
2018-06-04T15:37:18.000Z,14.53
2018-06-04T15:39:47.423Z,17.60
2018-06-04T15:42:17.863Z,19.50
2018-06-04T15:44:47.643Z,18.77
2018-06-04T15:47:16.995Z,18.73
2018-06-04T15:49:46.375Z,19.13
2018-06-04T15:52:15.759Z,18.13
2018-06-04T15:54:46.495Z,16.90
2018-06-04T15:57:15.919Z,17.10
2018-06-04T15:59:45.378Z,16.60
2018-06-04T16:02:15.363Z,15.53
2018-06-04T16:04:45.799Z,19.47
2018-06-04T16:07:16.610Z,17.13
2018-06-04T16:09:46.676Z,17.37
2018-06-04T16:12:17.083Z,19.33
2018-06-04T16:14:47.792Z,18.10
2018-06-04T16:17:21.468Z,17.67
2018-06-04T16:22:51.381Z,19.57
2018-06-04T16:25:20.754Z,17.87
2018-06-04T16:27:59.040Z,17.53
2018-06-04T16:30:29.201Z,16.30
2018-06-04T16:32:58.863Z,16.40
2018-06-04T16:35:29.504Z,17.53
2018-06-04T16:38:05.177Z,15.10
2018-06-04T16:40:35.544Z,16.37
2018-06-04T16:43:06.080Z,17.23
2018-06-04T16:45:37.640Z,16.10
2018-06-04T16:48:13.494Z,18.57
2018-06-04T16:50:45.237Z,17.00
2018-06-04T16:53:15.118Z,16.67
2018-06-04T16:55:47.228Z,17.07
2018-06-04T16:58:17.460Z,18.50
2018-06-04T17:00:48.494Z,17.47
2018-06-04T17:03:19.700Z,18.53
2018-06-04T17:05:55.250Z,17.03
2018-06-04T17:08:25.630Z,18.73
2018-06-04T17:10:55.962Z,17.27
2018-06-04T17:13:26.103Z,16.30
2018-06-04T17:15:57.206Z,15.67
2018-06-04T17:18:28.308Z,16.60
2018-06-04T17:20:58.457Z,16.80
2018-06-04T17:23:29.184Z,17.00
2018-06-04T17:25:58.581Z,16.07
2018-06-04T17:28:28.364Z,15.03
2018-06-04T17:30:57.736Z,15.87
2018-06-04T17:33:31.477Z,17.87
2018-06-04T17:36:01.100Z,18.60
2018-06-04T17:38:30.876Z,15.83
2018-06-04T17:42:35.395Z,15.00
2018-06-04T17:45:07.175Z,14.80
2018-06-04T17:47:37.604Z,15.60
2018-06-04T17:50:07.707Z,15.53
2018-06-04T17:52:39.347Z,15.40
2018-06-04T17:55:09.841Z,13.67
2018-06-04T17:57:39.572Z,16.53
2018-06-04T18:00:09.565Z,14.67
2018-06-04T18:02:44.068Z,15.50
2018-06-04T18:05:13.873Z,14.40
2018-06-04T18:07:46.322Z,19.00
2018-06-04T18:10:16.018Z,19.50
2018-06-04T18:12:45.535Z,17.70
2018-06-04T18:15:15.263Z,15.67
2018-06-04T18:17:44.679Z,16.50
2018-06-04T18:20:14.384Z,30.33
2018-06-04T18:22:44.395Z,17.57
2018-06-04T18:25:15.525Z,15.10
2018-06-04T18:27:45.375Z,13.87
2018-06-04T18:30:15.412Z,16.43
2018-06-04T18:32:45.596Z,14.93
2018-06-04T18:35:16.405Z,15.40
2018-06-04T18:37:45.773Z,16.73
2018-06-04T18:40:15.133Z,15.37
2018-06-04T18:42:45.134Z,16.60
2018-06-04T18:45:15.989Z,17.07
2018-06-04T18:47:45.592Z,14.77
2018-06-04T18:50:15.291Z,15.97
2018-06-04T18:52:48.194Z,15.73
2018-06-04T18:55:18.740Z,14.60
2018-06-04T18:57:48.141Z,15.83
2018-06-04T19:00:19.477Z,17.97
2018-06-04T19:02:48.731Z,18.10
2018-06-04T19:05:18.489Z,22.37
2018-06-04T19:07:48.996Z,19.70
2018-06-04T19:10:18.399Z,17.07
2018-06-04T19:12:48.832Z,16.00
2018-06-04T19:15:18.915Z,17.80
2018-06-04T19:17:49.054Z,17.30
2018-06-04T19:20:19.027Z,17.23
2018-06-04T19:22:49.478Z,17.07
2018-06-04T19:25:19.648Z,16.40
2018-06-04T19:27:49.959Z,17.20
2018-06-04T19:30:20.394Z,16.87
2018-06-04T19:32:50.879Z,16.63
2018-06-04T19:35:21.343Z,16.70
2018-06-04T19:37:51.627Z,15.70
2018-06-04T19:40:22.379Z,15.50
2018-06-04T19:42:54.169Z,15.20
2018-06-04T19:45:24.152Z,15.40
2018-06-04T19:47:54.763Z,24.03
2018-06-04T19:50:24.773Z,23.77
2018-06-04T19:52:55.785Z,43.13
2018-06-04T19:55:25.932Z,16.77
2018-06-04T19:57:55.785Z,14.93
2018-06-04T20:00:25.376Z,16.10
2018-06-04T20:02:55.609Z,14.67
2018-06-04T20:05:33.598Z,14.43
2018-06-04T20:08:04.427Z,13.30
2018-06-04T20:10:37.512Z,14.23
2018-06-04T20:13:09.199Z,14.27
2018-06-04T20:15:44.509Z,14.40
2018-06-04T20:18:17.611Z,13.83
2018-06-04T20:20:50.813Z,13.27
2018-06-04T20:23:20.986Z,14.60
2018-06-04T20:25:50.571Z,14.40
2018-06-04T20:28:20.837Z,16.83
2018-06-04T20:30:51.185Z,15.80
2018-06-04T20:33:20.749Z,38.80
2018-06-04T20:35:52.367Z,20.40
2018-06-04T20:38:22.971Z,15.00
2018-06-04T20:40:59.104Z,13.53
2018-06-04T20:43:30.211Z,13.63
2018-06-04T20:45:59.676Z,14.53
2018-06-04T20:48:30.221Z,12.90
2018-06-04T20:50:59.623Z,13.83
2018-06-04T20:53:29.273Z,13.77
2018-06-04T20:55:59.755Z,14.10
2018-06-04T20:58:30.700Z,14.53
2018-06-04T21:01:00.449Z,14.93
2018-06-04T21:03:29.876Z,14.90
2018-06-04T21:06:00.870Z,13.93
2018-06-04T21:08:30.581Z,13.57
2018-06-04T21:11:00.029Z,14.70
2018-06-04T21:13:30.507Z,14.17
2018-06-04T21:16:04.035Z,14.33
2018-06-04T21:18:37.492Z,13.90
2018-06-04T21:21:08.308Z,14.97
2018-06-04T21:23:49.916Z,13.30
2018-06-04T21:26:30.566Z,13.70
2018-06-04T21:29:00.855Z,14.60
2018-06-04T21:31:31.812Z,13.33
2018-06-04T21:34:01.764Z,21.13
2018-06-04T21:36:33.908Z,15.97
2018-06-04T21:39:05.062Z,15.23
2018-06-04T21:41:37.051Z,15.73
2018-06-04T21:44:07.333Z,15.20
2018-06-04T21:46:38.601Z,14.90
2018-06-04T21:49:09.150Z,14.10
2018-06-04T21:51:41.118Z,16.83
2018-06-04T21:54:15.159Z,15.47
2018-06-04T21:56:45.931Z,22.00
2018-06-04T21:59:16.936Z,16.70
2018-06-04T22:01:47.790Z,17.77
2018-06-04T22:04:17.546Z,18.03
2018-06-04T22:06:47.068Z,18.67
2018-06-04T22:09:17.163Z,18.20
2018-06-04T22:11:47.971Z,17.37
2018-06-04T22:14:19.235Z,18.17
2018-06-04T22:16:50.357Z,17.13
2018-06-04T22:19:24.105Z,18.80
2018-06-04T22:21:53.806Z,18.27
2018-06-04T22:24:23.898Z,15.77
2018-06-04T22:26:54.027Z,17.03
2018-06-04T22:29:23.940Z,16.00
2018-06-04T22:31:53.623Z,17.50
2018-06-04T22:34:22.983Z,17.40
2018-06-04T22:36:53.372Z,16.33
2018-06-04T22:39:23.183Z,17.87
2018-06-04T22:41:53.659Z,16.43
2018-06-04T22:44:24.959Z,16.70
2018-06-04T22:46:56.384Z,17.90
2018-06-04T22:49:27.363Z,18.30
2018-06-04T22:51:59.223Z,17.50
2018-06-04T22:54:28.690Z,17.03
2018-06-04T22:56:58.221Z,17.20
2018-06-04T22:59:29.107Z,17.60
2018-06-04T23:01:59.429Z,17.70
2018-06-04T23:04:30.643Z,16.50
2018-06-04T23:07:02.854Z,18.53
2018-06-04T23:09:35.676Z,17.63
2018-06-04T23:12:05.787Z,17.70
2018-06-04T23:14:36.215Z,17.67
2018-06-04T23:17:07.778Z,17.53
2018-06-04T23:19:38.174Z,18.57
2018-06-04T23:22:07.611Z,17.50
2018-06-04T23:24:37.734Z,19.10
2018-06-04T23:27:07.668Z,18.17
2018-06-04T23:29:38.918Z,18.30
2018-06-04T23:32:10.063Z,20.03
2018-06-04T23:34:39.742Z,18.63
2018-06-04T23:37:09.371Z,18.97
2018-06-04T23:39:39.557Z,19.40
2018-06-04T23:42:09.290Z,19.33
2018-06-04T23:44:39.299Z,19.17
2018-06-04T23:47:09.644Z,19.20
2018-06-04T23:49:42.124Z,19.27
2018-06-04T23:52:12.292Z,21.90
2018-06-04T23:54:42.032Z,20.97
2018-06-04T23:57:13.232Z,18.13
2018-06-04T23:59:43.094Z,20.07
